sensor_id;sensor_type;location;lat;lon;timestamp;P1;durP1;ratioP1;P2;durP2;ratioP2
55368;SDS011;41247;49.736;8.752;2023-07-13T00:03:16;4.30;;;1.40;;
55368;SDS011;41247;49.736;8.752;2023-07-13T00:06:57;3.00;;;1.13;;
55368;SDS011;41247;49.736;8.752;2023-07-13T00:10:41;6.22;;;1.30;;
55368;SDS011;41247;49.736;8.752;2023-07-13T00:14:22;3.55;;;1.10;;
55368;SDS011;41247;49.736;8.752;2023-07-13T00:18:04;3.17;;;1.00;;
55368;SDS011;41247;49.736;8.752;2023-07-13T00:21:45;2.33;;;1.00;;
55368;SDS011;41247;49.736;8.752;2023-07-13T00:25:26;2.47;;;1.10;;
55368;SDS011;41247;49.736;8.752;2023-07-13T00:29:07;4.07;;;1.02;;
55368;SDS011;41247;49.736;8.752;2023-07-13T00:32:47;3.03;;;1.00;;
55368;SDS011;41247;49.736;8.752;2023-07-13T00:36:29;3.28;;;1.02;;
55368;SDS011;41247;49.736;8.752;2023-07-13T00:40:11;3.25;;;1.10;;
55368;SDS011;41247;49.736;8.752;2023-07-13T00:43:53;4.13;;;0.98;;
55368;SDS011;41247;49.736;8.752;2023-07-13T00:47:34;4.95;;;1.13;;
55368;SDS011;41247;49.736;8.752;2023-07-13T00:51:15;2.80;;;1.27;;
55368;SDS011;41247;49.736;8.752;2023-07-13T00:55:00;4.05;;;1.30;;
55368;SDS011;41247;49.736;8.752;2023-07-13T00:58:42;4.57;;;1.10;;
55368;SDS011;41247;49.736;8.752;2023-07-13T01:02:22;2.35;;;1.23;;
55368;SDS011;41247;49.736;8.752;2023-07-13T01:06:05;3.42;;;1.30;;
55368;SDS011;41247;49.736;8.752;2023-07-13T01:09:46;8.05;;;1.27;;
55368;SDS011;41247;49.736;8.752;2023-07-13T01:13:26;3.00;;;1.25;;
55368;SDS011;41247;49.736;8.752;2023-07-13T01:17:10;3.97;;;1.38;;
55368;SDS011;41247;49.736;8.752;2023-07-13T01:20:55;3.88;;;1.38;;
55368;SDS011;41247;49.736;8.752;2023-07-13T01:24:44;1.50;;;1.27;;
55368;SDS011;41247;49.736;8.752;2023-07-13T01:28:27;4.03;;;1.40;;
55368;SDS011;41247;49.736;8.752;2023-07-13T01:32:09;2.88;;;1.60;;
55368;SDS011;41247;49.736;8.752;2023-07-13T01:35:53;5.32;;;1.40;;
55368;SDS011;41247;49.736;8.752;2023-07-13T01:39:33;2.38;;;1.67;;
55368;SDS011;41247;49.736;8.752;2023-07-13T01:43:14;2.88;;;1.58;;
55368;SDS011;41247;49.736;8.752;2023-07-13T01:46:55;2.38;;;1.40;;
55368;SDS011;41247;49.736;8.752;2023-07-13T01:50:36;2.97;;;1.50;;
55368;SDS011;41247;49.736;8.752;2023-07-13T01:54:16;3.38;;;1.70;;
55368;SDS011;41247;49.736;8.752;2023-07-13T01:57:57;6.13;;;1.80;;
55368;SDS011;41247;49.736;8.752;2023-07-13T02:01:38;2.38;;;1.50;;
55368;SDS011;41247;49.736;8.752;2023-07-13T02:05:18;3.10;;;1.85;;
55368;SDS011;41247;49.736;8.752;2023-07-13T02:08:59;3.63;;;1.70;;
55368;SDS011;41247;49.736;8.752;2023-07-13T02:12:40;4.30;;;1.67;;
55368;SDS011;41247;49.736;8.752;2023-07-13T02:16:22;3.63;;;2.20;;
55368;SDS011;41247;49.736;8.752;2023-07-13T02:20:02;4.00;;;1.70;;
55368;SDS011;41247;49.736;8.752;2023-07-13T02:23:46;3.03;;;1.95;;
55368;SDS011;41247;49.736;8.752;2023-07-13T02:27:27;3.45;;;1.80;;
55368;SDS011;41247;49.736;8.752;2023-07-13T02:31:09;4.93;;;1.85;;
55368;SDS011;41247;49.736;8.752;2023-07-13T02:34:53;2.38;;;1.75;;
55368;SDS011;41247;49.736;8.752;2023-07-13T02:38:34;3.83;;;2.00;;
55368;SDS011;41247;49.736;8.752;2023-07-13T02:42:15;4.22;;;2.17;;
55368;SDS011;41247;49.736;8.752;2023-07-13T02:45:56;2.33;;;1.90;;
55368;SDS011;41247;49.736;8.752;2023-07-13T02:49:36;4.32;;;2.20;;
55368;SDS011;41247;49.736;8.752;2023-07-13T02:53:17;4.68;;;1.90;;
55368;SDS011;41247;49.736;8.752;2023-07-13T02:56:58;3.72;;;1.95;;
55368;SDS011;41247;49.736;8.752;2023-07-13T03:00:38;4.30;;;2.20;;
55368;SDS011;41247;49.736;8.752;2023-07-13T03:04:19;3.85;;;1.92;;
55368;SDS011;41247;49.736;8.752;2023-07-13T03:08:00;8.48;;;2.17;;
55368;SDS011;41247;49.736;8.752;2023-07-13T03:11:40;2.53;;;2.08;;
55368;SDS011;41247;49.736;8.752;2023-07-13T03:15:21;2.80;;;2.00;;
55368;SDS011;41247;49.736;8.752;2023-07-13T03:19:01;12.10;;;2.28;;
55368;SDS011;41247;49.736;8.752;2023-07-13T03:22:42;5.00;;;2.15;;
55368;SDS011;41247;49.736;8.752;2023-07-13T03:26:23;7.20;;;2.20;;
55368;SDS011;41247;49.736;8.752;2023-07-13T03:30:04;3.28;;;1.80;;
55368;SDS011;41247;49.736;8.752;2023-07-13T03:33:46;3.90;;;1.90;;
55368;SDS011;41247;49.736;8.752;2023-07-13T03:37:27;5.78;;;2.03;;
55368;SDS011;41247;49.736;8.752;2023-07-13T03:41:08;4.10;;;1.92;;
55368;SDS011;41247;49.736;8.752;2023-07-13T03:44:48;4.32;;;2.10;;
55368;SDS011;41247;49.736;8.752;2023-07-13T03:48:29;3.83;;;2.00;;
55368;SDS011;41247;49.736;8.752;2023-07-13T03:52:09;7.95;;;2.10;;
55368;SDS011;41247;49.736;8.752;2023-07-13T03:55:50;4.28;;;2.20;;
55368;SDS011;41247;49.736;8.752;2023-07-13T03:59:31;3.45;;;2.00;;
55368;SDS011;41247;49.736;8.752;2023-07-13T04:03:11;5.28;;;2.20;;
55368;SDS011;41247;49.736;8.752;2023-07-13T04:06:52;3.90;;;2.10;;
55368;SDS011;41247;49.736;8.752;2023-07-13T04:10:32;4.07;;;2.00;;
55368;SDS011;41247;49.736;8.752;2023-07-13T04:14:13;4.47;;;1.98;;
55368;SDS011;41247;49.736;8.752;2023-07-13T04:17:53;3.80;;;2.03;;
55368;SDS011;41247;49.736;8.752;2023-07-13T04:21:34;2.35;;;1.98;;
55368;SDS011;41247;49.736;8.752;2023-07-13T04:25:15;4.93;;;1.88;;
55368;SDS011;41247;49.736;8.752;2023-07-13T04:28:57;3.47;;;2.42;;
55368;SDS011;41247;49.736;8.752;2023-07-13T04:32:38;7.72;;;1.90;;
55368;SDS011;41247;49.736;8.752;2023-07-13T04:36:18;2.97;;;1.88;;
55368;SDS011;41247;49.736;8.752;2023-07-13T04:39:59;3.25;;;2.03;;
55368;SDS011;41247;49.736;8.752;2023-07-13T04:43:39;2.55;;;2.10;;
55368;SDS011;41247;49.736;8.752;2023-07-13T04:47:20;6.00;;;1.98;;
55368;SDS011;41247;49.736;8.752;2023-07-13T04:51:01;2.08;;;1.85;;
55368;SDS011;41247;49.736;8.752;2023-07-13T04:54:42;4.75;;;1.73;;
55368;SDS011;41247;49.736;8.752;2023-07-13T04:58:23;7.43;;;2.30;;
55368;SDS011;41247;49.736;8.752;2023-07-13T05:02:04;3.13;;;1.83;;
55368;SDS011;41247;49.736;8.752;2023-07-13T05:05:54;3.78;;;2.00;;
55368;SDS011;41247;49.736;8.752;2023-07-13T05:09:48;3.80;;;1.80;;
55368;SDS011;41247;49.736;8.752;2023-07-13T05:13:31;3.35;;;2.15;;
55368;SDS011;41247;49.736;8.752;2023-07-13T05:17:11;2.83;;;1.70;;
55368;SDS011;41247;49.736;8.752;2023-07-13T05:20:59;3.95;;;1.92;;
55368;SDS011;41247;49.736;8.752;2023-07-13T05:24:46;3.75;;;1.92;;
55368;SDS011;41247;49.736;8.752;2023-07-13T05:28:27;5.32;;;1.98;;
55368;SDS011;41247;49.736;8.752;2023-07-13T05:32:11;2.50;;;1.67;;
55368;SDS011;41247;49.736;8.752;2023-07-13T05:35:51;6.35;;;1.65;;
55368;SDS011;41247;49.736;8.752;2023-07-13T05:39:32;3.53;;;1.83;;
55368;SDS011;41247;49.736;8.752;2023-07-13T05:43:13;4.05;;;1.80;;
55368;SDS011;41247;49.736;8.752;2023-07-13T05:46:54;4.10;;;1.30;;
55368;SDS011;41247;49.736;8.752;2023-07-13T05:50:34;3.63;;;1.80;;
55368;SDS011;41247;49.736;8.752;2023-07-13T05:54:15;3.58;;;1.60;;
55368;SDS011;41247;49.736;8.752;2023-07-13T05:57:56;2.90;;;1.55;;
55368;SDS011;41247;49.736;8.752;2023-07-13T06:05:21;3.38;;;1.58;;
55368;SDS011;41247;49.736;8.752;2023-07-13T06:09:02;1.70;;;0.95;;
55368;SDS011;41247;49.736;8.752;2023-07-13T06:12:43;4.13;;;1.70;;
55368;SDS011;41247;49.736;8.752;2023-07-13T06:16:25;6.03;;;1.42;;
55368;SDS011;41247;49.736;8.752;2023-07-13T06:20:06;5.60;;;1.42;;
55368;SDS011;41247;49.736;8.752;2023-07-13T06:23:48;7.22;;;1.10;;
55368;SDS011;41247;49.736;8.752;2023-07-13T06:27:35;6.38;;;1.35;;
55368;SDS011;41247;49.736;8.752;2023-07-13T06:31:18;5.13;;;0.95;;
55368;SDS011;41247;49.736;8.752;2023-07-13T06:34:59;3.00;;;0.70;;
55368;SDS011;41247;49.736;8.752;2023-07-13T06:38:43;6.60;;;1.05;;
55368;SDS011;41247;49.736;8.752;2023-07-13T06:42:28;3.55;;;0.80;;
55368;SDS011;41247;49.736;8.752;2023-07-13T06:46:09;7.72;;;1.27;;
55368;SDS011;41247;49.736;8.752;2023-07-13T06:49:50;4.05;;;1.02;;
55368;SDS011;41247;49.736;8.752;2023-07-13T06:53:30;4.00;;;1.10;;
55368;SDS011;41247;49.736;8.752;2023-07-13T06:57:13;3.78;;;1.00;;
55368;SDS011;41247;49.736;8.752;2023-07-13T07:00:54;3.95;;;1.30;;
55368;SDS011;41247;49.736;8.752;2023-07-13T07:04:34;2.30;;;0.70;;
55368;SDS011;41247;49.736;8.752;2023-07-13T07:08:15;4.93;;;1.15;;
55368;SDS011;41247;49.736;8.752;2023-07-13T07:11:55;2.67;;;0.80;;
55368;SDS011;41247;49.736;8.752;2023-07-13T07:15:36;3.17;;;0.90;;
55368;SDS011;41247;49.736;8.752;2023-07-13T07:19:17;7.82;;;1.35;;
55368;SDS011;41247;49.736;8.752;2023-07-13T07:22:57;6.15;;;1.40;;
55368;SDS011;41247;49.736;8.752;2023-07-13T07:26:38;4.20;;;0.80;;
55368;SDS011;41247;49.736;8.752;2023-07-13T07:30:18;4.30;;;0.90;;
55368;SDS011;41247;49.736;8.752;2023-07-13T07:33:59;4.45;;;0.90;;
55368;SDS011;41247;49.736;8.752;2023-07-13T07:37:40;4.72;;;1.13;;
55368;SDS011;41247;49.736;8.752;2023-07-13T07:41:20;9.18;;;1.15;;
55368;SDS011;41247;49.736;8.752;2023-07-13T07:45:01;5.75;;;1.10;;
55368;SDS011;41247;49.736;8.752;2023-07-13T07:48:42;6.40;;;0.90;;
55368;SDS011;41247;49.736;8.752;2023-07-13T07:52:22;5.05;;;1.48;;
55368;SDS011;41247;49.736;8.752;2023-07-13T07:56:03;3.25;;;1.00;;
55368;SDS011;41247;49.736;8.752;2023-07-13T07:59:44;4.25;;;1.10;;
55368;SDS011;41247;49.736;8.752;2023-07-13T08:03:24;3.95;;;1.25;;
55368;SDS011;41247;49.736;8.752;2023-07-13T08:07:05;3.47;;;1.13;;
55368;SDS011;41247;49.736;8.752;2023-07-13T08:10:46;5.00;;;1.15;;
55368;SDS011;41247;49.736;8.752;2023-07-13T08:14:26;6.40;;;1.17;;
55368;SDS011;41247;49.736;8.752;2023-07-13T08:18:07;3.88;;;1.00;;
55368;SDS011;41247;49.736;8.752;2023-07-13T08:21:47;6.28;;;1.40;;
55368;SDS011;41247;49.736;8.752;2023-07-13T08:25:28;9.38;;;1.20;;
55368;SDS011;41247;49.736;8.752;2023-07-13T08:29:08;7.22;;;1.40;;
55368;SDS011;41247;49.736;8.752;2023-07-13T08:32:49;4.10;;;1.40;;
55368;SDS011;41247;49.736;8.752;2023-07-13T08:36:30;7.40;;;1.20;;
55368;SDS011;41247;49.736;8.752;2023-07-13T08:40:11;4.22;;;1.27;;
55368;SDS011;41247;49.736;8.752;2023-07-13T08:43:54;2.75;;;1.02;;
55368;SDS011;41247;49.736;8.752;2023-07-13T08:47:39;5.45;;;1.00;;
55368;SDS011;41247;49.736;8.752;2023-07-13T08:55:26;7.72;;;1.25;;
55368;SDS011;41247;49.736;8.752;2023-07-13T08:59:11;8.40;;;1.23;;
55368;SDS011;41247;49.736;8.752;2023-07-13T09:02:56;8.88;;;1.17;;
55368;SDS011;41247;49.736;8.752;2023-07-13T09:07:04;7.57;;;1.20;;
55368;SDS011;41247;49.736;8.752;2023-07-13T09:10:53;5.82;;;1.50;;
55368;SDS011;41247;49.736;8.752;2023-07-13T09:14:43;7.70;;;1.00;;
55368;SDS011;41247;49.736;8.752;2023-07-13T09:18:33;5.70;;;1.10;;
55368;SDS011;41247;49.736;8.752;2023-07-13T09:22:19;6.57;;;1.17;;
55368;SDS011;41247;49.736;8.752;2023-07-13T09:26:04;8.60;;;1.17;;
55368;SDS011;41247;49.736;8.752;2023-07-13T09:30:22;4.78;;;1.02;;
55368;SDS011;41247;49.736;8.752;2023-07-13T09:34:12;7.80;;;1.23;;
55368;SDS011;41247;49.736;8.752;2023-07-13T09:37:57;5.03;;;1.27;;
55368;SDS011;41247;49.736;8.752;2023-07-13T09:41:56;5.63;;;1.08;;
55368;SDS011;41247;49.736;8.752;2023-07-13T09:45:47;4.43;;;0.90;;
55368;SDS011;41247;49.736;8.752;2023-07-13T09:49:29;5.93;;;0.98;;
55368;SDS011;41247;49.736;8.752;2023-07-13T09:53:15;7.15;;;1.25;;
55368;SDS011;41247;49.736;8.752;2023-07-13T09:56:58;2.95;;;0.90;;
55368;SDS011;41247;49.736;8.752;2023-07-13T10:00:41;4.30;;;0.95;;
55368;SDS011;41247;49.736;8.752;2023-07-13T10:04:31;2.28;;;0.98;;
55368;SDS011;41247;49.736;8.752;2023-07-13T10:08:27;5.18;;;1.20;;
55368;SDS011;41247;49.736;8.752;2023-07-13T10:12:15;7.30;;;1.00;;
55368;SDS011;41247;49.736;8.752;2023-07-13T10:15:56;3.95;;;1.05;;
55368;SDS011;41247;49.736;8.752;2023-07-13T10:19:38;3.00;;;1.10;;
55368;SDS011;41247;49.736;8.752;2023-07-13T10:23:23;2.50;;;1.02;;
55368;SDS011;41247;49.736;8.752;2023-07-13T10:27:20;3.67;;;1.10;;
55368;SDS011;41247;49.736;8.752;2023-07-13T10:31:14;4.40;;;1.05;;
55368;SDS011;41247;49.736;8.752;2023-07-13T10:34:56;7.97;;;1.15;;
55368;SDS011;41247;49.736;8.752;2023-07-13T10:38:36;6.40;;;1.05;;
55368;SDS011;41247;49.736;8.752;2023-07-13T10:42:29;1.33;;;0.80;;
55368;SDS011;41247;49.736;8.752;2023-07-13T10:46:16;4.45;;;1.15;;
55368;SDS011;41247;49.736;8.752;2023-07-13T10:49:59;4.57;;;1.00;;
55368;SDS011;41247;49.736;8.752;2023-07-13T10:53:40;3.28;;;1.05;;
55368;SDS011;41247;49.736;8.752;2023-07-13T10:57:21;5.07;;;1.20;;
55368;SDS011;41247;49.736;8.752;2023-07-13T11:04:46;2.33;;;0.77;;
55368;SDS011;41247;49.736;8.752;2023-07-13T11:15:55;2.67;;;0.73;;
55368;SDS011;41247;49.736;8.752;2023-07-13T11:19:39;5.63;;;1.08;;
55368;SDS011;41247;49.736;8.752;2023-07-13T11:23:27;7.68;;;1.27;;
55368;SDS011;41247;49.736;8.752;2023-07-13T11:27:25;5.07;;;0.95;;
55368;SDS011;41247;49.736;8.752;2023-07-13T11:31:14;2.25;;;0.80;;
55368;SDS011;41247;49.736;8.752;2023-07-13T11:34:56;2.80;;;1.13;;
55368;SDS011;41247;49.736;8.752;2023-07-13T11:38:41;5.38;;;0.90;;
55368;SDS011;41247;49.736;8.752;2023-07-13T11:42:24;5.38;;;1.00;;
55368;SDS011;41247;49.736;8.752;2023-07-13T11:50:02;4.90;;;1.20;;
55368;SDS011;41247;49.736;8.752;2023-07-13T11:53:45;3.08;;;0.95;;
55368;SDS011;41247;49.736;8.752;2023-07-13T11:57:28;7.70;;;1.13;;
55368;SDS011;41247;49.736;8.752;2023-07-13T12:01:21;5.50;;;1.20;;
55368;SDS011;41247;49.736;8.752;2023-07-13T12:05:05;4.88;;;1.27;;
55368;SDS011;41247;49.736;8.752;2023-07-13T12:08:57;4.57;;;1.10;;
55368;SDS011;41247;49.736;8.752;2023-07-13T12:13:07;5.82;;;0.90;;
55368;SDS011;41247;49.736;8.752;2023-07-13T12:16:49;2.55;;;1.15;;
55368;SDS011;41247;49.736;8.752;2023-07-13T12:20:33;3.50;;;0.95;;
55368;SDS011;41247;49.736;8.752;2023-07-13T12:24:18;4.88;;;1.20;;
55368;SDS011;41247;49.736;8.752;2023-07-13T12:28:01;3.75;;;1.20;;
55368;SDS011;41247;49.736;8.752;2023-07-13T12:32:14;5.30;;;1.77;;
55368;SDS011;41247;49.736;8.752;2023-07-13T12:35:59;4.10;;;1.60;;
55368;SDS011;41247;49.736;8.752;2023-07-13T12:39:44;4.15;;;1.52;;
55368;SDS011;41247;49.736;8.752;2023-07-13T12:43:29;3.13;;;1.20;;
55368;SDS011;41247;49.736;8.752;2023-07-13T12:47:16;3.33;;;0.82;;
55368;SDS011;41247;49.736;8.752;2023-07-13T12:51:00;2.97;;;0.80;;
55368;SDS011;41247;49.736;8.752;2023-07-13T12:54:41;3.78;;;1.02;;
55368;SDS011;41247;49.736;8.752;2023-07-13T12:58:29;2.13;;;1.00;;
55368;SDS011;41247;49.736;8.752;2023-07-13T13:10:00;5.03;;;1.00;;
55368;SDS011;41247;49.736;8.752;2023-07-13T13:13:42;4.07;;;1.00;;
55368;SDS011;41247;49.736;8.752;2023-07-13T13:17:24;2.28;;;1.02;;
55368;SDS011;41247;49.736;8.752;2023-07-13T13:21:10;3.47;;;0.98;;
55368;SDS011;41247;49.736;8.752;2023-07-13T13:24:51;4.60;;;1.00;;
55368;SDS011;41247;49.736;8.752;2023-07-13T13:28:32;7.05;;;0.90;;
55368;SDS011;41247;49.736;8.752;2023-07-13T13:32:16;6.65;;;1.00;;
55368;SDS011;41247;49.736;8.752;2023-07-13T13:35:56;5.05;;;1.20;;
55368;SDS011;41247;49.736;8.752;2023-07-13T13:39:37;2.65;;;0.93;;
55368;SDS011;41247;49.736;8.752;2023-07-13T13:43:20;5.13;;;1.15;;
55368;SDS011;41247;49.736;8.752;2023-07-13T13:47:28;3.78;;;0.90;;
55368;SDS011;41247;49.736;8.752;2023-07-13T13:51:16;5.68;;;0.90;;
55368;SDS011;41247;49.736;8.752;2023-07-13T13:55:00;3.50;;;0.95;;
55368;SDS011;41247;49.736;8.752;2023-07-13T13:58:40;3.72;;;1.05;;
55368;SDS011;41247;49.736;8.752;2023-07-13T14:02:22;8.10;;;1.00;;
55368;SDS011;41247;49.736;8.752;2023-07-13T14:06:07;3.70;;;1.10;;
55368;SDS011;41247;49.736;8.752;2023-07-13T14:09:53;5.72;;;1.10;;
55368;SDS011;41247;49.736;8.752;2023-07-13T14:13:38;3.90;;;1.15;;
55368;SDS011;41247;49.736;8.752;2023-07-13T14:17:24;5.93;;;1.40;;
55368;SDS011;41247;49.736;8.752;2023-07-13T14:21:11;2.25;;;0.90;;
55368;SDS011;41247;49.736;8.752;2023-07-13T14:25:01;4.60;;;1.23;;
55368;SDS011;41247;49.736;8.752;2023-07-13T14:28:42;3.42;;;1.10;;
55368;SDS011;41247;49.736;8.752;2023-07-13T14:32:27;2.58;;;1.20;;
55368;SDS011;41247;49.736;8.752;2023-07-13T14:36:21;4.80;;;0.90;;
55368;SDS011;41247;49.736;8.752;2023-07-13T14:40:16;4.82;;;1.00;;
55368;SDS011;41247;49.736;8.752;2023-07-13T14:44:04;3.67;;;1.20;;
55368;SDS011;41247;49.736;8.752;2023-07-13T14:47:55;6.82;;;1.00;;
55368;SDS011;41247;49.736;8.752;2023-07-13T14:51:36;5.45;;;1.10;;
55368;SDS011;41247;49.736;8.752;2023-07-13T14:55:18;4.95;;;1.17;;
55368;SDS011;41247;49.736;8.752;2023-07-13T14:58:59;5.43;;;1.25;;
55368;SDS011;41247;49.736;8.752;2023-07-13T15:02:39;4.93;;;1.20;;
55368;SDS011;41247;49.736;8.752;2023-07-13T15:06:22;2.67;;;1.00;;
55368;SDS011;41247;49.736;8.752;2023-07-13T15:10:04;3.80;;;1.20;;
55368;SDS011;41247;49.736;8.752;2023-07-13T15:13:53;4.07;;;1.10;;
55368;SDS011;41247;49.736;8.752;2023-07-13T15:17:36;6.47;;;1.13;;
55368;SDS011;41247;49.736;8.752;2023-07-13T15:21:20;2.22;;;0.80;;
55368;SDS011;41247;49.736;8.752;2023-07-13T15:25:03;2.60;;;1.15;;
55368;SDS011;41247;49.736;8.752;2023-07-13T15:28:52;5.82;;;0.95;;
55368;SDS011;41247;49.736;8.752;2023-07-13T15:32:33;4.35;;;1.38;;
55368;SDS011;41247;49.736;8.752;2023-07-13T15:36:13;3.45;;;1.00;;
55368;SDS011;41247;49.736;8.752;2023-07-13T15:39:56;4.10;;;1.30;;
55368;SDS011;41247;49.736;8.752;2023-07-13T15:43:40;2.40;;;0.88;;
55368;SDS011;41247;49.736;8.752;2023-07-13T15:47:20;3.85;;;1.00;;
55368;SDS011;41247;49.736;8.752;2023-07-13T15:51:04;4.03;;;1.00;;
55368;SDS011;41247;49.736;8.752;2023-07-13T15:54:51;3.35;;;1.15;;
55368;SDS011;41247;49.736;8.752;2023-07-13T15:58:32;1.98;;;0.80;;
55368;SDS011;41247;49.736;8.752;2023-07-13T16:02:15;2.58;;;0.70;;
55368;SDS011;41247;49.736;8.752;2023-07-13T16:05:58;4.40;;;0.95;;
55368;SDS011;41247;49.736;8.752;2023-07-13T16:09:39;2.83;;;0.93;;
55368;SDS011;41247;49.736;8.752;2023-07-13T16:13:21;2.28;;;0.80;;
55368;SDS011;41247;49.736;8.752;2023-07-13T16:17:02;5.25;;;0.88;;
55368;SDS011;41247;49.736;8.752;2023-07-13T16:20:44;8.48;;;1.10;;
55368;SDS011;41247;49.736;8.752;2023-07-13T16:24:26;4.57;;;1.10;;
55368;SDS011;41247;49.736;8.752;2023-07-13T16:28:11;4.47;;;0.95;;
55368;SDS011;41247;49.736;8.752;2023-07-13T16:32:00;4.13;;;0.80;;
55368;SDS011;41247;49.736;8.752;2023-07-13T16:39:26;3.58;;;0.93;;
55368;SDS011;41247;49.736;8.752;2023-07-13T16:43:08;1.90;;;0.70;;
55368;SDS011;41247;49.736;8.752;2023-07-13T16:46:55;3.42;;;0.70;;
55368;SDS011;41247;49.736;8.752;2023-07-13T16:50:37;1.10;;;0.65;;
55368;SDS011;41247;49.736;8.752;2023-07-13T16:54:21;3.42;;;0.65;;
55368;SDS011;41247;49.736;8.752;2023-07-13T16:58:02;2.10;;;0.90;;
55368;SDS011;41247;49.736;8.752;2023-07-13T17:01:43;3.25;;;0.90;;
55368;SDS011;41247;49.736;8.752;2023-07-13T17:05:24;1.60;;;0.90;;
55368;SDS011;41247;49.736;8.752;2023-07-13T17:09:05;8.00;;;0.90;;
55368;SDS011;41247;49.736;8.752;2023-07-13T17:12:49;2.40;;;0.80;;
55368;SDS011;41247;49.736;8.752;2023-07-13T17:16:32;2.15;;;0.80;;
55368;SDS011;41247;49.736;8.752;2023-07-13T17:20:17;2.55;;;0.98;;
55368;SDS011;41247;49.736;8.752;2023-07-13T17:24:02;2.83;;;0.65;;
55368;SDS011;41247;49.736;8.752;2023-07-13T17:27:50;2.40;;;0.90;;
55368;SDS011;41247;49.736;8.752;2023-07-13T17:31:31;3.95;;;0.82;;
55368;SDS011;41247;49.736;8.752;2023-07-13T17:35:17;2.30;;;0.82;;
55368;SDS011;41247;49.736;8.752;2023-07-13T17:39:05;1.23;;;0.70;;
55368;SDS011;41247;49.736;8.752;2023-07-13T17:42:59;4.28;;;0.80;;
55368;SDS011;41247;49.736;8.752;2023-07-13T17:46:39;5.30;;;1.10;;
55368;SDS011;41247;49.736;8.752;2023-07-13T17:50:30;2.63;;;0.80;;
55368;SDS011;41247;49.736;8.752;2023-07-13T17:54:14;4.97;;;0.90;;
55368;SDS011;41247;49.736;8.752;2023-07-13T18:01:38;2.45;;;0.90;;
55368;SDS011;41247;49.736;8.752;2023-07-13T18:05:18;2.05;;;0.82;;
55368;SDS011;41247;49.736;8.752;2023-07-13T18:08:59;2.50;;;0.80;;
55368;SDS011;41247;49.736;8.752;2023-07-13T18:12:41;3.22;;;0.75;;
55368;SDS011;41247;49.736;8.752;2023-07-13T18:16:26;3.17;;;0.90;;
55368;SDS011;41247;49.736;8.752;2023-07-13T18:20:09;5.00;;;0.70;;
55368;SDS011;41247;49.736;8.752;2023-07-13T18:23:55;4.10;;;0.98;;
55368;SDS011;41247;49.736;8.752;2023-07-13T18:27:36;8.63;;;1.15;;
55368;SDS011;41247;49.736;8.752;2023-07-13T18:31:17;2.10;;;1.00;;
55368;SDS011;41247;49.736;8.752;2023-07-13T18:35:00;1.95;;;0.77;;
55368;SDS011;41247;49.736;8.752;2023-07-13T18:38:41;2.20;;;0.70;;
55368;SDS011;41247;49.736;8.752;2023-07-13T18:42:23;4.13;;;0.95;;
55368;SDS011;41247;49.736;8.752;2023-07-13T18:46:09;7.80;;;0.98;;
55368;SDS011;41247;49.736;8.752;2023-07-13T18:50:13;3.53;;;1.08;;
55368;SDS011;41247;49.736;8.752;2023-07-13T18:54:01;9.55;;;1.45;;
55368;SDS011;41247;49.736;8.752;2023-07-13T18:57:42;4.30;;;0.75;;
55368;SDS011;41247;49.736;8.752;2023-07-13T19:01:27;4.28;;;0.88;;
55368;SDS011;41247;49.736;8.752;2023-07-13T19:05:15;1.67;;;0.82;;
55368;SDS011;41247;49.736;8.752;2023-07-13T19:12:38;1.85;;;0.82;;
55368;SDS011;41247;49.736;8.752;2023-07-13T19:16:18;3.28;;;0.90;;
55368;SDS011;41247;49.736;8.752;2023-07-13T19:19:59;3.92;;;1.25;;
55368;SDS011;41247;49.736;8.752;2023-07-13T19:23:41;5.65;;;1.00;;
55368;SDS011;41247;49.736;8.752;2023-07-13T19:27:24;3.65;;;1.15;;
55368;SDS011;41247;49.736;8.752;2023-07-13T19:31:06;5.95;;;1.23;;
55368;SDS011;41247;49.736;8.752;2023-07-13T19:35:06;3.17;;;1.10;;
55368;SDS011;41247;49.736;8.752;2023-07-13T19:38:48;1.92;;;0.95;;
55368;SDS011;41247;49.736;8.752;2023-07-13T19:42:29;4.57;;;1.08;;
55368;SDS011;41247;49.736;8.752;2023-07-13T19:46:28;1.40;;;0.90;;
55368;SDS011;41247;49.736;8.752;2023-07-13T19:50:12;4.32;;;1.10;;
55368;SDS011;41247;49.736;8.752;2023-07-13T19:53:56;2.15;;;1.10;;
55368;SDS011;41247;49.736;8.752;2023-07-13T19:57:45;2.40;;;1.00;;
55368;SDS011;41247;49.736;8.752;2023-07-13T20:01:26;3.72;;;1.00;;
55368;SDS011;41247;49.736;8.752;2023-07-13T20:05:07;1.15;;;0.82;;
55368;SDS011;41247;49.736;8.752;2023-07-13T20:08:47;8.07;;;1.10;;
55368;SDS011;41247;49.736;8.752;2023-07-13T20:12:28;2.33;;;1.00;;
55368;SDS011;41247;49.736;8.752;2023-07-13T20:16:12;6.40;;;1.05;;
55368;SDS011;41247;49.736;8.752;2023-07-13T20:19:54;7.78;;;1.10;;
55368;SDS011;41247;49.736;8.752;2023-07-13T20:23:35;2.03;;;0.90;;
55368;SDS011;41247;49.736;8.752;2023-07-13T20:27:15;2.88;;;0.98;;
55368;SDS011;41247;49.736;8.752;2023-07-13T20:30:56;3.92;;;1.30;;
55368;SDS011;41247;49.736;8.752;2023-07-13T20:34:38;3.72;;;0.95;;
55368;SDS011;41247;49.736;8.752;2023-07-13T20:38:19;1.80;;;1.10;;
55368;SDS011;41247;49.736;8.752;2023-07-13T20:42:00;4.72;;;0.90;;
55368;SDS011;41247;49.736;8.752;2023-07-13T20:45:41;4.50;;;1.13;;
55368;SDS011;41247;49.736;8.752;2023-07-13T20:49:21;1.52;;;0.82;;
55368;SDS011;41247;49.736;8.752;2023-07-13T20:53:02;3.28;;;1.10;;
55368;SDS011;41247;49.736;8.752;2023-07-13T20:56:43;2.80;;;1.30;;
55368;SDS011;41247;49.736;8.752;2023-07-13T21:00:25;2.42;;;1.02;;
55368;SDS011;41247;49.736;8.752;2023-07-13T21:04:11;4.88;;;1.20;;
55368;SDS011;41247;49.736;8.752;2023-07-13T21:07:54;1.77;;;1.10;;
55368;SDS011;41247;49.736;8.752;2023-07-13T21:11:34;1.35;;;0.82;;
55368;SDS011;41247;49.736;8.752;2023-07-13T21:15:16;3.30;;;0.90;;
55368;SDS011;41247;49.736;8.752;2023-07-13T21:18:58;2.45;;;1.20;;
55368;SDS011;41247;49.736;8.752;2023-07-13T21:22:39;5.95;;;1.25;;
55368;SDS011;41247;49.736;8.752;2023-07-13T21:26:19;2.67;;;1.20;;
55368;SDS011;41247;49.736;8.752;2023-07-13T21:30:00;6.25;;;1.20;;
55368;SDS011;41247;49.736;8.752;2023-07-13T21:33:41;2.72;;;1.40;;
55368;SDS011;41247;49.736;8.752;2023-07-13T21:37:22;4.05;;;1.20;;
55368;SDS011;41247;49.736;8.752;2023-07-13T21:41:03;2.25;;;1.20;;
55368;SDS011;41247;49.736;8.752;2023-07-13T21:45:00;5.25;;;1.30;;
55368;SDS011;41247;49.736;8.752;2023-07-13T21:48:41;5.82;;;1.50;;
55368;SDS011;41247;49.736;8.752;2023-07-13T21:52:21;3.13;;;1.23;;
55368;SDS011;41247;49.736;8.752;2023-07-13T21:56:02;2.88;;;1.23;;
55368;SDS011;41247;49.736;8.752;2023-07-13T21:59:43;2.78;;;1.27;;
55368;SDS011;41247;49.736;8.752;2023-07-13T22:03:25;4.57;;;1.30;;
55368;SDS011;41247;49.736;8.752;2023-07-13T22:07:12;4.25;;;1.30;;
55368;SDS011;41247;49.736;8.752;2023-07-13T22:10:53;2.63;;;0.95;;
55368;SDS011;41247;49.736;8.752;2023-07-13T22:14:34;5.50;;;1.30;;
55368;SDS011;41247;49.736;8.752;2023-07-13T22:18:16;3.80;;;1.25;;
55368;SDS011;41247;49.736;8.752;2023-07-13T22:22:00;5.05;;;1.10;;
55368;SDS011;41247;49.736;8.752;2023-07-13T22:25:40;1.50;;;0.90;;
55368;SDS011;41247;49.736;8.752;2023-07-13T22:29:21;2.80;;;1.25;;
55368;SDS011;41247;49.736;8.752;2023-07-13T22:33:12;3.28;;;1.08;;
55368;SDS011;41247;49.736;8.752;2023-07-13T22:36:56;2.70;;;1.23;;
55368;SDS011;41247;49.736;8.752;2023-07-13T22:40:36;5.72;;;1.00;;
55368;SDS011;41247;49.736;8.752;2023-07-13T22:44:18;5.55;;;1.23;;
55368;SDS011;41247;49.736;8.752;2023-07-13T22:48:00;3.47;;;1.02;;
55368;SDS011;41247;49.736;8.752;2023-07-13T22:51:41;1.77;;;1.23;;
55368;SDS011;41247;49.736;8.752;2023-07-13T22:55:22;1.63;;;1.08;;
55368;SDS011;41247;49.736;8.752;2023-07-13T22:59:02;1.98;;;1.20;;
55368;SDS011;41247;49.736;8.752;2023-07-13T23:02:43;3.50;;;1.02;;
55368;SDS011;41247;49.736;8.752;2023-07-13T23:06:29;2.55;;;1.17;;
55368;SDS011;41247;49.736;8.752;2023-07-13T23:10:15;5.72;;;1.13;;